createdAt,value
2018-10-06T00:00:32.080Z,0
2018-10-06T00:03:31.118Z,0
2018-10-06T00:06:31.183Z,0
2018-10-06T00:09:31.157Z,0
2018-10-06T00:12:31.276Z,0
2018-10-06T00:15:31.376Z,0
2018-10-06T00:18:30.731Z,0
2018-10-06T00:21:30.932Z,0
2018-10-06T00:24:31.019Z,0
2018-10-06T00:27:32.194Z,0
2018-10-06T00:30:31.354Z,0
2018-10-06T00:33:31.367Z,0
2018-10-06T00:36:31.427Z,0
2018-10-06T00:39:31.505Z,0
2018-10-06T00:42:31.731Z,0
2018-10-06T00:45:30.747Z,0
2018-10-06T00:48:30.827Z,0
2018-10-06T00:51:30.703Z,0
2018-10-06T00:54:30.953Z,0
2018-10-06T00:57:30.971Z,0
2018-10-06T01:00:31.124Z,0
2018-10-06T01:03:31.288Z,0
2018-10-06T01:06:31.779Z,0
2018-10-06T01:09:30.828Z,0
2018-10-06T01:12:32.595Z,0
2018-10-06T01:15:30.466Z,0
2018-10-06T01:18:30.751Z,0
2018-10-06T01:21:31.456Z,0
2018-10-06T01:24:31.816Z,0
2018-10-06T01:27:30.880Z,0
2018-10-06T01:30:30.956Z,0
2018-10-06T01:33:30.964Z,0
2018-10-06T01:36:31.103Z,0
2018-10-06T01:39:31.279Z,0
2018-10-06T01:42:31.395Z,0
2018-10-06T01:45:31.482Z,0
2018-10-06T01:48:30.725Z,0
2018-10-06T01:51:30.840Z,0
2018-10-06T01:54:31.160Z,0
2018-10-06T01:57:31.315Z,0
2018-10-06T02:00:31.496Z,0
2018-10-06T02:03:30.570Z,0
2018-10-06T02:06:30.730Z,0
2018-10-06T02:09:30.943Z,0
2018-10-06T02:12:31.021Z,0
2018-10-06T02:15:31.071Z,0
2018-10-06T02:18:31.215Z,0
2018-10-06T02:21:31.224Z,0
2018-10-06T02:24:31.268Z,0
2018-10-06T02:27:31.249Z,0
2018-10-06T02:30:31.608Z,0
2018-10-06T02:33:30.690Z,0
2018-10-06T02:36:31.072Z,0
2018-10-06T02:39:31.328Z,0
2018-10-06T02:42:31.248Z,0
2018-10-06T02:45:31.314Z,0
2018-10-06T02:48:31.677Z,0
2018-10-06T02:51:30.952Z,0
2018-10-06T02:54:31.115Z,0
2018-10-06T02:57:31.313Z,0
2018-10-06T03:00:31.779Z,0
2018-10-06T03:03:30.923Z,0
2018-10-06T03:06:31.081Z,0
2018-10-06T03:09:31.374Z,0
2018-10-06T03:12:31.879Z,0
2018-10-06T03:15:30.873Z,0
2018-10-06T03:18:31.128Z,0
2018-10-06T03:21:31.295Z,0
2018-10-06T03:24:31.654Z,0
2018-10-06T03:27:30.793Z,0
2018-10-06T03:30:31.038Z,0
2018-10-06T03:33:31.245Z,0
2018-10-06T03:36:31.299Z,0
2018-10-06T03:39:31.623Z,0
2018-10-06T03:42:30.890Z,0
2018-10-06T03:45:30.928Z,0
2018-10-06T03:48:31.225Z,0
2018-10-06T03:51:31.559Z,0
2018-10-06T03:54:30.602Z,0
2018-10-06T03:57:30.615Z,0
2018-10-06T04:00:30.738Z,0
2018-10-06T04:03:31.184Z,0
2018-10-06T04:06:31.339Z,0
2018-10-06T04:09:31.421Z,0
2018-10-06T04:12:31.451Z,0
2018-10-06T04:15:30.587Z,0
2018-10-06T04:18:30.788Z,0
2018-10-06T04:21:31.206Z,0
2018-10-06T04:24:31.424Z,0
2018-10-06T04:27:31.165Z,0
2018-10-06T04:30:31.365Z,0
2018-10-06T04:33:31.423Z,0
2018-10-06T04:36:31.511Z,0
2018-10-06T04:39:30.765Z,0
2018-10-06T04:42:30.863Z,0
2018-10-06T04:45:30.953Z,0
2018-10-06T04:48:31.138Z,0
2018-10-06T04:51:31.361Z,0
2018-10-06T04:54:31.709Z,0
2018-10-06T04:57:30.946Z,0
2018-10-06T05:00:31.697Z,0
2018-10-06T05:03:31.258Z,0
2018-10-06T05:06:30.558Z,1
2018-10-06T05:09:30.721Z,2
2018-10-06T05:12:30.821Z,2
2018-10-06T05:15:30.970Z,5
2018-10-06T05:18:31.263Z,9
2018-10-06T05:21:31.524Z,17
2018-10-06T05:24:30.765Z,28
2018-10-06T05:27:30.975Z,42
2018-10-06T05:30:31.272Z,58
2018-10-06T05:33:31.595Z,82
2018-10-06T05:36:30.910Z,111
2018-10-06T05:39:31.017Z,145
2018-10-06T05:42:31.268Z,192
2018-10-06T05:45:31.560Z,272
2018-10-06T05:48:30.862Z,363
2018-10-06T05:51:31.196Z,463
2018-10-06T05:54:36.821Z,586
2018-10-06T05:57:30.947Z,729
2018-10-06T06:00:31.169Z,902
2018-10-06T06:03:31.502Z,1070
2018-10-06T06:06:30.694Z,1209
2018-10-06T06:09:30.929Z,1313
2018-10-06T06:12:31.200Z,1359
2018-10-06T06:15:31.463Z,1534
2018-10-06T06:18:30.901Z,1448
2018-10-06T06:21:31.400Z,1527
2018-10-06T06:24:30.539Z,1770
2018-10-06T06:27:30.693Z,1734
2018-10-06T06:30:31.067Z,1755
2018-10-06T06:33:31.498Z,1738
2018-10-06T06:36:30.693Z,1908
2018-10-06T06:39:31.098Z,1998
2018-10-06T06:42:31.453Z,2128
2018-10-06T06:45:31.648Z,2112
2018-10-06T06:48:30.937Z,2260
2018-10-06T06:51:31.137Z,2420
2018-10-06T06:54:31.313Z,2509
2018-10-06T06:57:31.546Z,2628
2018-10-06T07:00:30.618Z,2710
2018-10-06T07:03:30.923Z,2951
2018-10-06T07:06:31.030Z,3371
2018-10-06T07:09:31.295Z,3543
2018-10-06T07:12:31.744Z,3788
2018-10-06T07:15:30.956Z,3983
2018-10-06T07:18:31.353Z,4453
2018-10-06T07:21:30.825Z,4996
2018-10-06T07:24:31.078Z,5555
2018-10-06T07:27:31.266Z,5918
2018-10-06T07:30:31.488Z,6062
2018-10-06T07:33:30.675Z,5922
2018-10-06T07:36:31.305Z,6068
2018-10-06T07:39:31.548Z,6062
2018-10-06T07:42:30.885Z,6287
2018-10-06T07:45:31.242Z,6806
2018-10-06T07:48:31.617Z,6800
2018-10-06T07:51:30.913Z,7211
2018-10-06T07:54:31.223Z,7468
2018-10-06T07:57:31.629Z,7559
2018-10-06T08:00:30.878Z,9227
2018-10-06T08:03:31.085Z,15196
2018-10-06T08:06:31.861Z,24628
2018-10-06T08:09:31.498Z,31776
2018-10-06T08:12:30.662Z,34740
2018-10-06T08:15:30.884Z,30622
2018-10-06T08:18:31.335Z,33280
2018-10-06T08:21:31.464Z,33814
2018-10-06T08:24:31.796Z,34348
2018-10-06T08:27:31.034Z,35935
2018-10-06T08:30:31.362Z,37041
2018-10-06T08:33:31.666Z,34666
2018-10-06T08:36:30.872Z,34597
2018-10-06T08:39:31.058Z,38579
2018-10-06T08:42:31.163Z,42667
2018-10-06T08:45:31.454Z,41145
2018-10-06T08:48:30.650Z,45152
2018-10-06T08:51:31.026Z,44285
2018-10-06T08:54:31.301Z,45815
2018-10-06T08:57:31.625Z,38290
2018-10-06T09:00:30.809Z,40737
2018-10-06T09:03:30.980Z,42690
2018-10-06T09:06:31.512Z,34638
2018-10-06T09:09:30.724Z,35816
2018-10-06T09:12:30.807Z,36471
2018-10-06T09:15:31.227Z,34341
2018-10-06T09:18:31.569Z,32948
2018-10-06T09:21:30.825Z,38624
2018-10-06T09:24:31.064Z,34958
2018-10-06T09:27:31.321Z,30843
2018-10-06T09:30:31.383Z,31207
2018-10-06T09:33:31.732Z,31262
2018-10-06T09:36:30.957Z,31008
2018-10-06T09:39:31.295Z,38716
2018-10-06T09:42:32.247Z,34117
2018-10-06T09:45:31.084Z,47059
2018-10-06T09:48:31.482Z,53457
2018-10-06T09:51:30.826Z,42852
2018-10-06T09:54:30.977Z,49878
2018-10-06T09:57:31.327Z,31354
2018-10-06T10:02:39.970Z,36231
2018-10-06T10:04:37.167Z,34695
2018-10-06T10:06:31.818Z,40016
2018-10-06T10:09:31.215Z,26967
2018-10-06T10:12:31.277Z,23040
2018-10-06T10:15:32.175Z,43847
2018-10-06T10:18:32.276Z,44238
2018-10-06T10:21:31.606Z,47855
2018-10-06T10:24:30.737Z,37120
2018-10-06T10:27:30.785Z,15653
2018-10-06T10:30:31.160Z,14467
2018-10-06T10:33:31.517Z,13428
2018-10-06T10:36:30.907Z,15987
2018-10-06T10:39:31.660Z,13798
2018-10-06T10:42:31.537Z,16109
2018-10-06T10:45:31.060Z,18094
2018-10-06T10:48:31.351Z,19388
2018-10-06T10:51:31.763Z,54612
2018-10-06T10:54:31.317Z,54472
2018-10-06T10:57:30.918Z,54612
2018-10-06T11:00:31.604Z,31013
2018-10-06T11:03:31.021Z,38788
2018-10-06T11:06:31.233Z,23363
2018-10-06T11:09:31.702Z,23532
2018-10-06T11:12:30.764Z,25455
2018-10-06T11:15:30.968Z,21582
2018-10-06T11:18:31.283Z,17474
2018-10-06T11:21:31.898Z,16132
2018-10-06T11:24:31.264Z,17063
2018-10-06T11:27:31.512Z,16191
2018-10-06T11:30:30.795Z,19156
2018-10-06T11:33:31.007Z,18264
2018-10-06T11:36:31.501Z,15988
2018-10-06T11:39:30.724Z,14049
2018-10-06T11:42:30.774Z,12315
2018-10-06T11:45:31.133Z,10959
2018-10-06T11:48:31.318Z,10494
2018-10-06T11:51:31.419Z,11178
2018-10-06T11:54:30.840Z,10341
2018-10-06T11:57:30.914Z,11510
2018-10-06T12:00:31.542Z,10172
2018-10-06T12:03:30.667Z,8850
2018-10-06T12:06:31.004Z,8002
2018-10-06T12:09:31.679Z,8229
2018-10-06T12:12:31.108Z,8574
2018-10-06T12:15:31.436Z,8738
2018-10-06T12:18:31.825Z,8482
2018-10-06T12:21:31.202Z,7538
2018-10-06T12:24:31.535Z,7432
2018-10-06T12:27:30.918Z,7716
2018-10-06T12:30:31.456Z,7808
2018-10-06T12:33:31.607Z,7973
2018-10-06T12:36:31.020Z,7847
2018-10-06T12:39:31.391Z,7780
2018-10-06T12:42:32.027Z,7320
2018-10-06T12:45:31.195Z,6903
2018-10-06T12:48:31.476Z,6892
2018-10-06T12:51:30.989Z,6898
2018-10-06T12:54:31.695Z,6429
2018-10-06T12:57:31.049Z,6135
2018-10-06T13:00:31.443Z,6025
2018-10-06T13:03:30.625Z,6382
2018-10-06T13:06:31.238Z,6750
2018-10-06T13:09:31.661Z,7390
2018-10-06T13:12:30.984Z,7482
2018-10-06T13:15:31.253Z,7098
2018-10-06T13:18:31.636Z,6144
2018-10-06T13:21:31.027Z,5913
2018-10-06T13:24:31.512Z,6931
2018-10-06T13:27:30.815Z,7627
2018-10-06T13:30:31.055Z,6705
2018-10-06T13:33:31.311Z,5360
2018-10-06T13:36:31.484Z,6278
2018-10-06T13:39:31.721Z,7161
2018-10-06T13:42:31.006Z,6664
2018-10-06T13:45:31.243Z,6177
2018-10-06T13:48:31.385Z,5167
2018-10-06T13:51:31.801Z,4944
2018-10-06T13:54:30.975Z,4663
2018-10-06T13:57:31.577Z,4685
2018-10-06T14:00:31.016Z,4731
2018-10-06T14:03:31.448Z,4618
2018-10-06T14:06:30.781Z,4708
2018-10-06T14:09:30.973Z,4582
2018-10-06T14:12:31.632Z,4412
2018-10-06T14:15:31.121Z,4409
2018-10-06T14:18:31.481Z,4172
2018-10-06T14:21:30.634Z,4026
2018-10-06T14:24:30.920Z,3927
2018-10-06T14:27:31.363Z,3878
2018-10-06T14:30:31.595Z,3502
2018-10-06T14:33:30.786Z,3196
2018-10-06T14:36:30.977Z,3081
2018-10-06T14:39:31.248Z,3281
2018-10-06T14:42:31.503Z,3558
2018-10-06T14:45:30.719Z,3486
2018-10-06T14:48:30.810Z,3182
2018-10-06T14:51:30.988Z,2867
2018-10-06T14:54:31.258Z,2740
2018-10-06T14:57:31.510Z,2671
2018-10-06T15:00:30.759Z,2525
2018-10-06T15:03:30.951Z,2380
2018-10-06T15:06:31.408Z,2318
2018-10-06T15:09:30.818Z,2252
2018-10-06T15:12:31.201Z,2131
2018-10-06T15:15:31.350Z,2018
2018-10-06T15:18:30.727Z,2017
2018-10-06T15:21:31.225Z,2045
2018-10-06T15:24:30.731Z,2092
2018-10-06T15:27:31.034Z,2007
2018-10-06T15:30:31.339Z,1830
2018-10-06T15:33:31.685Z,1722
2018-10-06T15:36:31.285Z,1657
2018-10-06T15:39:31.651Z,1734
2018-10-06T15:42:31.040Z,1803
2018-10-06T15:45:31.811Z,1847
2018-10-06T15:48:31.167Z,1824
2018-10-06T15:51:31.437Z,1975
2018-10-06T15:54:31.764Z,2002
2018-10-06T15:57:31.129Z,1948
2018-10-06T16:00:31.418Z,1886
2018-10-06T16:03:30.659Z,1785
2018-10-06T16:06:30.988Z,1658
2018-10-06T16:09:31.358Z,1447
2018-10-06T16:12:31.052Z,1315
2018-10-06T16:15:31.493Z,1206
2018-10-06T16:18:30.749Z,1076
2018-10-06T16:21:30.998Z,929
2018-10-06T16:24:31.568Z,766
2018-10-06T16:27:31.262Z,638
2018-10-06T16:30:30.870Z,533
2018-10-06T16:33:31.256Z,464
2018-10-06T16:36:30.732Z,425
2018-10-06T16:39:31.189Z,400
2018-10-06T16:42:31.275Z,369
2018-10-06T16:45:31.545Z,318
2018-10-06T16:48:30.920Z,268
2018-10-06T16:51:31.377Z,231
2018-10-06T16:54:31.681Z,195
2018-10-06T16:57:36.253Z,153
2018-10-06T17:00:31.694Z,91
2018-10-06T17:03:31.085Z,49
2018-10-06T17:06:31.893Z,35
2018-10-06T17:09:31.213Z,23
2018-10-06T17:12:31.780Z,14
2018-10-06T17:15:31.495Z,8
2018-10-06T17:18:30.978Z,4
2018-10-06T17:21:31.473Z,2
2018-10-06T17:24:30.826Z,1
2018-10-06T17:27:31.084Z,1
2018-10-06T17:30:31.443Z,0
2018-10-06T17:33:30.824Z,0
2018-10-06T17:36:31.232Z,0
2018-10-06T17:39:31.372Z,0
2018-10-06T17:42:31.821Z,0
2018-10-06T17:45:31.185Z,0
2018-10-06T17:48:31.387Z,0
2018-10-06T17:51:31.705Z,0
2018-10-06T17:54:30.917Z,0
2018-10-06T17:57:31.422Z,0
2018-10-06T18:00:31.178Z,0
2018-10-06T18:03:31.465Z,0
2018-10-06T18:06:30.747Z,0
2018-10-06T18:09:30.871Z,0
2018-10-06T18:12:31.062Z,0
2018-10-06T18:15:31.305Z,0
2018-10-06T18:18:31.734Z,0
2018-10-06T18:21:32.113Z,0
2018-10-06T18:24:31.000Z,0
2018-10-06T18:27:31.459Z,0
2018-10-06T18:30:30.773Z,0
2018-10-06T18:33:30.990Z,0
2018-10-06T18:36:31.735Z,0
2018-10-06T18:39:31.391Z,0
2018-10-06T18:42:31.811Z,0
2018-10-06T18:45:31.002Z,0
2018-10-06T18:48:31.348Z,0
2018-10-06T18:51:31.639Z,0
2018-10-06T18:54:30.964Z,0
2018-10-06T18:57:31.353Z,0
2018-10-06T19:00:30.741Z,0
2018-10-06T19:03:31.505Z,0
2018-10-06T19:06:31.146Z,0
2018-10-06T19:09:38.635Z,0
2018-10-06T19:12:30.887Z,0
2018-10-06T19:15:31.214Z,0
2018-10-06T19:18:31.654Z,0
2018-10-06T19:21:30.936Z,0
2018-10-06T19:24:31.558Z,0
2018-10-06T19:27:30.935Z,0
2018-10-06T19:30:31.298Z,0
2018-10-06T19:33:31.474Z,0
2018-10-06T19:36:30.849Z,0
2018-10-06T19:39:31.181Z,0
2018-10-06T19:42:31.685Z,0
2018-10-06T19:45:30.952Z,0
2018-10-06T19:48:31.285Z,0
2018-10-06T19:51:31.744Z,0
2018-10-06T19:54:31.280Z,0
2018-10-06T19:57:31.681Z,0
2018-10-06T20:00:30.949Z,0
2018-10-06T20:03:31.111Z,0
2018-10-06T20:06:32.490Z,0
2018-10-06T20:09:30.614Z,0
2018-10-06T20:12:31.244Z,0
2018-10-06T20:15:30.859Z,0
2018-10-06T20:18:31.228Z,0
2018-10-06T20:21:31.442Z,0
2018-10-06T20:24:31.726Z,0
2018-10-06T20:27:30.891Z,0
2018-10-06T20:30:31.444Z,0
2018-10-06T20:33:30.801Z,0
2018-10-06T20:36:30.955Z,0
2018-10-06T20:39:30.963Z,0
2018-10-06T20:42:31.182Z,0
2018-10-06T20:45:31.507Z,0
2018-10-06T20:48:30.669Z,0
2018-10-06T20:51:30.849Z,0
2018-10-06T20:54:31.076Z,0
2018-10-06T20:57:31.353Z,0
2018-10-06T21:00:31.457Z,0
2018-10-06T21:03:30.508Z,0
2018-10-06T21:06:30.539Z,0
2018-10-06T21:09:30.749Z,0
2018-10-06T21:12:31.212Z,0
2018-10-06T21:15:31.399Z,0
2018-10-06T21:18:30.896Z,0
2018-10-06T21:21:31.326Z,0
2018-10-06T21:24:31.435Z,0
2018-10-06T21:27:31.767Z,0
2018-10-06T21:30:31.075Z,0
2018-10-06T21:33:31.391Z,0
2018-10-06T21:36:31.346Z,0
2018-10-06T21:39:31.514Z,0
2018-10-06T21:42:30.810Z,0
2018-10-06T21:45:31.158Z,0
2018-10-06T21:48:31.287Z,0
2018-10-06T21:51:31.415Z,0
2018-10-06T21:54:30.807Z,0
2018-10-06T21:57:30.960Z,0
2018-10-06T22:00:32.312Z,0
2018-10-06T22:03:32.259Z,0
2018-10-06T22:06:31.596Z,0
2018-10-06T22:09:30.771Z,0
2018-10-06T22:12:31.137Z,0
2018-10-06T22:15:31.701Z,0
2018-10-06T22:18:30.878Z,0
2018-10-06T22:21:31.110Z,0
2018-10-06T22:24:31.293Z,0
2018-10-06T22:27:31.378Z,0
2018-10-06T22:30:31.411Z,0
2018-10-06T22:33:31.680Z,0
2018-10-06T22:36:30.764Z,0
2018-10-06T22:39:30.878Z,0
2018-10-06T22:42:30.961Z,0
2018-10-06T22:45:31.275Z,0
2018-10-06T22:48:31.408Z,0
2018-10-06T22:51:31.857Z,0
2018-10-06T22:54:31.242Z,0
2018-10-06T22:57:31.663Z,0
2018-10-06T23:00:31.105Z,0
2018-10-06T23:03:31.271Z,0
2018-10-06T23:06:31.850Z,0
2018-10-06T23:09:31.192Z,0
2018-10-06T23:12:32.039Z,0
2018-10-06T23:15:31.827Z,0
2018-10-06T23:18:31.310Z,0
2018-10-06T23:21:31.591Z,0
2018-10-06T23:24:30.994Z,0
2018-10-06T23:27:31.281Z,0
2018-10-06T23:30:30.746Z,0
2018-10-06T23:33:31.292Z,0
2018-10-06T23:36:32.015Z,0
2018-10-06T23:39:31.277Z,0
2018-10-06T23:42:30.578Z,0
2018-10-06T23:45:30.888Z,0
2018-10-06T23:48:30.974Z,0
2018-10-06T23:51:31.532Z,0
2018-10-06T23:54:31.025Z,0
2018-10-06T23:57:31.586Z,0
